Terminal Aerodrome Forecast
Issued by NWS

Home | Current Version | Previous Version | Text Only | Print | Product List | Glossary On
Versions: 1 2 3 4 5 6 7 8 9 10 11 12
000
FTUS41 KBTV 192337
TAFMPV
TAF
KMPV 192337Z 2000/2024 23010G16KT P6SM SCT150
     FM200400 27008KT P6SM FEW080
     FM200800 30004KT P6SM SKC
     FM201700 32008KT P6SM SKC=

USA.gov is the U.S. government's official web portal to all federal, state and local government web resources and services.